createdAt,value
2022-10-01T00:00:48.387Z,4.70
2022-10-01T00:03:53.176Z,5.80
2022-10-01T00:06:59.304Z,5.50
2022-10-01T00:10:02.325Z,5.33
2022-10-01T00:13:05.447Z,5.17
2022-10-01T00:16:10.128Z,5.07
2022-10-01T00:19:15.341Z,4.83
2022-10-01T00:22:19.124Z,4.90
2022-10-01T00:25:22.538Z,4.63
2022-10-01T00:28:25.882Z,5.13
2022-10-01T00:31:29.895Z,5.37
2022-10-01T00:34:34.315Z,5.57
2022-10-01T00:37:37.785Z,5.10
2022-10-01T00:40:40.726Z,5.07
2022-10-01T00:43:46.825Z,4.53
2022-10-01T00:46:49.952Z,4.90
2022-10-01T00:49:59.584Z,4.80
2022-10-01T00:53:06.319Z,5.97
2022-10-01T00:56:09.358Z,5.40
2022-10-01T00:59:14.074Z,5.37
2022-10-01T01:02:17.156Z,5.10
2022-10-01T01:05:21.725Z,4.90
2022-10-01T01:08:24.789Z,4.90
2022-10-01T01:11:38.555Z,4.83
2022-10-01T01:14:54.440Z,5.20
2022-10-01T01:18:03.878Z,5.10
2022-10-01T01:21:19.882Z,5.50
2022-10-01T01:24:39.665Z,5.17
2022-10-01T01:27:46.565Z,5.90
2022-10-01T01:30:54.263Z,4.97
2022-10-01T01:33:59.093Z,5.07
2022-10-01T01:37:12.010Z,5.50
2022-10-01T01:40:17.299Z,5.50
2022-10-01T01:43:24.581Z,4.73
2022-10-01T01:46:33.889Z,4.90
2022-10-01T01:49:38.362Z,5.50
2022-10-01T01:52:41.523Z,5.20
2022-10-01T01:55:47.745Z,5.27
2022-10-01T01:58:51.678Z,4.97
2022-10-01T02:01:56.233Z,4.50
2022-10-01T02:05:03.610Z,4.63
2022-10-01T02:08:27.802Z,5.13
2022-10-01T02:11:37.018Z,4.80
2022-10-01T02:14:55.292Z,5.17
2022-10-01T02:18:10.535Z,4.60
2022-10-01T02:21:21.510Z,5.07
2022-10-01T02:24:34.033Z,4.60
2022-10-01T02:27:44.379Z,4.53
2022-10-01T02:30:49.243Z,4.90
2022-10-01T02:33:56.606Z,4.90
2022-10-01T02:37:04.095Z,5.20
2022-10-01T02:40:14.738Z,4.97
2022-10-01T02:43:23.195Z,5.33
2022-10-01T02:46:32.634Z,5.00
2022-10-01T02:49:41.400Z,5.03
2022-10-01T02:52:49.360Z,5.60
2022-10-01T02:55:53.698Z,4.60
2022-10-01T02:58:55.668Z,4.80
2022-10-01T03:01:58.714Z,5.07
2022-10-01T03:05:03.185Z,4.77
2022-10-01T03:08:06.222Z,5.20
2022-10-01T03:11:09.662Z,5.13
2022-10-01T03:14:12.694Z,4.90
2022-10-01T03:17:16.939Z,8.60
2022-10-01T03:20:21.801Z,7.30
2022-10-01T03:23:24.839Z,7.13
2022-10-01T03:26:27.805Z,6.53
2022-10-01T03:29:30.768Z,6.20
2022-10-01T03:32:34.155Z,6.20
2022-10-01T03:35:38.514Z,5.57
2022-10-01T03:38:41.539Z,6.57
2022-10-01T03:41:44.697Z,8.20
2022-10-01T03:44:47.994Z,10.70
2022-10-01T03:47:53.483Z,10.27
2022-10-01T03:50:59.291Z,9.53
2022-10-01T03:54:02.253Z,11.73
2022-10-01T03:57:06.132Z,10.30
2022-10-01T04:00:12.043Z,10.03
2022-10-01T04:03:15.695Z,9.30
2022-10-01T04:06:20.059Z,8.67
2022-10-01T04:09:23.070Z,7.30
2022-10-01T04:12:26.129Z,8.00
2022-10-01T04:15:29.148Z,7.47
2022-10-01T04:18:32.386Z,7.10
2022-10-01T04:21:37.491Z,6.80
2022-10-01T04:24:40.678Z,7.17
2022-10-01T04:27:56.535Z,6.20
2022-10-01T04:31:13.625Z,5.67
2022-10-01T04:34:16.704Z,6.60
2022-10-01T04:37:21.646Z,7.43
2022-10-01T04:40:24.638Z,12.97
2022-10-01T04:43:27.593Z,8.53
2022-10-01T04:46:31.237Z,7.83
2022-10-01T04:49:34.360Z,7.60
2022-10-01T04:52:38.841Z,9.40
2022-10-01T04:55:41.803Z,8.50
2022-10-01T04:58:44.800Z,9.80
2022-10-01T05:01:48.116Z,9.70
2022-10-01T05:04:51.139Z,8.50
2022-10-01T05:07:55.576Z,8.47
2022-10-01T05:11:00.622Z,9.00
2022-10-01T05:14:03.918Z,8.00
2022-10-01T05:17:07.447Z,7.60
2022-10-01T05:20:16.098Z,7.37
2022-10-01T05:23:20.472Z,7.00
2022-10-01T05:26:23.456Z,7.10
2022-10-01T05:29:26.466Z,7.70
2022-10-01T05:32:29.468Z,21.13
2022-10-01T05:35:33.303Z,7.63
2022-10-01T05:38:37.736Z,11.63
2022-10-01T05:41:41.056Z,9.93
2022-10-01T05:44:46.289Z,9.43
2022-10-01T05:47:49.983Z,8.27
2022-10-01T05:50:54.552Z,7.67
2022-10-01T05:54:05.317Z,7.40
2022-10-01T05:57:09.860Z,8.10
2022-10-01T06:00:14.797Z,8.50
2022-10-01T06:03:17.823Z,9.37
2022-10-01T06:06:22.884Z,8.87
2022-10-01T06:09:27.481Z,11.27
2022-10-01T06:12:30.428Z,9.30
2022-10-01T06:15:37.532Z,16.40
2022-10-01T06:18:40.733Z,12.53
2022-10-01T06:21:43.702Z,15.87
2022-10-01T06:24:48.111Z,11.70
2022-10-01T06:27:53.571Z,9.63
2022-10-01T06:30:56.620Z,8.70
2022-10-01T06:33:59.610Z,10.60
2022-10-01T06:37:02.824Z,9.17
2022-10-01T06:40:08.431Z,8.70
2022-10-01T06:43:11.568Z,7.80
2022-10-01T06:46:14.662Z,7.80
2022-10-01T06:49:20.556Z,9.80
2022-10-01T06:52:41.223Z,8.33
2022-10-01T06:55:46.550Z,12.20
2022-10-01T06:58:49.548Z,10.20
2022-10-01T07:01:56.336Z,9.30
2022-10-01T07:04:59.986Z,8.83
2022-10-01T07:08:03.132Z,7.90
2022-10-01T07:11:07.708Z,8.70
2022-10-01T07:14:10.697Z,8.63
2022-10-01T07:17:13.734Z,7.23
2022-10-01T07:20:18.926Z,7.17
2022-10-01T07:23:24.388Z,6.97
2022-10-01T07:26:28.770Z,6.97
2022-10-01T07:29:32.078Z,5.93
2022-10-01T07:32:36.042Z,7.03
2022-10-01T07:35:39.258Z,7.10
2022-10-01T07:38:43.613Z,7.23
2022-10-01T07:41:48.040Z,7.70
2022-10-01T07:44:50.999Z,6.60
2022-10-01T07:47:55.347Z,6.70
2022-10-01T07:50:58.338Z,6.70
2022-10-01T07:54:01.303Z,7.37
2022-10-01T07:57:05.692Z,6.03
2022-10-01T08:00:09.980Z,6.20
2022-10-01T08:03:13.443Z,6.40
2022-10-01T08:06:16.540Z,7.03
2022-10-01T08:09:19.533Z,8.60
2022-10-01T08:12:24.512Z,6.90
2022-10-01T08:15:27.646Z,7.43
2022-10-01T08:18:30.708Z,8.70
2022-10-01T08:21:35.658Z,8.10
2022-10-01T08:24:39.837Z,9.30
2022-10-01T08:27:44.428Z,21.40
2022-10-01T08:30:47.444Z,13.17
2022-10-01T08:33:50.886Z,13.13
2022-10-01T08:36:53.931Z,9.53
2022-10-01T08:39:57.961Z,9.07
2022-10-01T08:43:06.449Z,9.40
2022-10-01T08:46:16.089Z,10.20
2022-10-01T08:49:24.370Z,8.20
2022-10-01T08:52:31.136Z,8.17
2022-10-01T08:55:37.522Z,8.90
2022-10-01T08:58:46.200Z,9.10
2022-10-01T09:01:49.242Z,8.77
2022-10-01T09:04:58.928Z,7.70
2022-10-01T09:08:18.480Z,8.30
2022-10-01T09:11:38.059Z,7.90
2022-10-01T09:15:06.166Z,7.23
2022-10-01T09:18:19.559Z,7.23
2022-10-01T09:21:34.351Z,8.13
2022-10-01T09:24:44.850Z,7.30
2022-10-01T09:27:48.221Z,7.53
2022-10-01T09:30:58.531Z,7.83
2022-10-01T09:34:05.547Z,8.07
2022-10-01T09:37:15.002Z,8.90
2022-10-01T09:40:26.152Z,9.10
2022-10-01T09:43:31.236Z,9.13
2022-10-01T09:46:36.527Z,10.73
2022-10-01T09:49:42.373Z,11.10
2022-10-01T09:52:48.777Z,10.77
2022-10-01T09:55:55.425Z,11.10
2022-10-01T09:59:03.349Z,10.70
2022-10-01T10:02:20.058Z,9.77
2022-10-01T10:05:25.828Z,10.80
2022-10-01T10:08:31.923Z,11.40
2022-10-01T10:11:35.830Z,9.50
2022-10-01T10:14:41.381Z,10.77
2022-10-01T10:17:50.293Z,10.13
2022-10-01T10:20:55.094Z,9.53
2022-10-01T10:24:00.226Z,9.97
2022-10-01T10:27:06.172Z,11.73
2022-10-01T10:30:16.207Z,10.80
2022-10-01T10:33:22.046Z,11.27
2022-10-01T10:36:30.309Z,11.73
2022-10-01T10:39:36.823Z,12.63
2022-10-01T10:42:39.940Z,11.30
2022-10-01T10:45:47.005Z,11.50
2022-10-01T10:48:59.153Z,11.33
2022-10-01T10:52:03.181Z,10.27
2022-10-01T10:55:23.172Z,10.30
2022-10-01T10:58:28.040Z,10.20
2022-10-01T11:01:32.256Z,11.10
2022-10-01T11:04:42.676Z,10.30
2022-10-01T11:07:47.837Z,8.90
2022-10-01T11:11:04.782Z,8.90
2022-10-01T11:14:23.788Z,9.17
2022-10-01T11:17:55.287Z,9.10
2022-10-01T11:21:13.579Z,7.90
2022-10-01T11:24:29.664Z,8.10
2022-10-01T11:27:41.422Z,7.60
2022-10-01T11:30:54.605Z,8.40
2022-10-01T11:34:15.710Z,8.07
2022-10-01T11:37:36.838Z,8.07
2022-10-01T11:40:43.929Z,8.60
2022-10-01T11:43:53.302Z,9.47
2022-10-01T11:47:02.087Z,8.33
2022-10-01T11:50:09.439Z,8.83
2022-10-01T11:53:20.195Z,8.07
2022-10-01T11:56:46.766Z,8.30
2022-10-01T11:59:55.009Z,7.90
2022-10-01T12:03:03.138Z,8.33
2022-10-01T12:06:09.502Z,7.70
2022-10-01T12:09:22.112Z,7.10
2022-10-01T12:12:29.294Z,7.83
2022-10-01T12:15:40.312Z,6.73
2022-10-01T12:18:52.698Z,7.03
2022-10-01T12:21:59.973Z,7.33
2022-10-01T12:25:04.666Z,7.23
2022-10-01T12:28:13.314Z,6.53
2022-10-01T12:31:23.492Z,7.07
2022-10-01T12:34:40.386Z,7.27
2022-10-01T12:38:00.596Z,7.80
2022-10-01T12:41:16.507Z,8.47
2022-10-01T12:44:45.858Z,11.17
2022-10-01T12:48:01.587Z,11.60
2022-10-01T12:51:22.448Z,12.80
2022-10-01T12:54:52.035Z,13.10
2022-10-01T12:58:04.875Z,16.70
2022-10-01T13:01:16.470Z,16.00
2022-10-01T13:04:38.517Z,17.23
2022-10-01T13:07:56.857Z,15.37
2022-10-01T13:11:08.942Z,14.40
2022-10-01T13:14:16.832Z,12.73
2022-10-01T13:17:30.390Z,14.90
2022-10-01T13:20:42.522Z,12.53
2022-10-01T13:23:51.529Z,12.60
2022-10-01T13:27:01.466Z,12.77
2022-10-01T13:30:15.554Z,12.67
2022-10-01T13:33:24.777Z,12.20
2022-10-01T13:36:33.371Z,12.30
2022-10-01T13:39:39.520Z,12.60
2022-10-01T13:42:46.635Z,10.07
2022-10-01T13:45:53.612Z,10.73
2022-10-01T13:48:57.285Z,11.17
2022-10-01T13:52:02.279Z,9.90
2022-10-01T13:55:05.819Z,9.50
2022-10-01T13:58:23.317Z,9.87
2022-10-01T14:01:39.428Z,10.00
2022-10-01T14:04:45.354Z,11.37
2022-10-01T14:07:50.285Z,11.63
2022-10-01T14:11:16.206Z,10.97
2022-10-01T14:14:41.329Z,13.43
2022-10-01T14:17:49.537Z,12.70
2022-10-01T14:21:00.538Z,12.97
2022-10-01T14:24:14.638Z,12.33
2022-10-01T14:27:24.070Z,11.63
2022-10-01T14:30:39.443Z,11.13
2022-10-01T14:34:14.902Z,11.80
2022-10-01T14:37:21.121Z,12.20
2022-10-01T14:40:25.542Z,11.07
2022-10-01T14:43:30.464Z,11.00
2022-10-01T14:46:37.209Z,10.03
2022-10-01T14:49:40.611Z,9.93
2022-10-01T14:52:49.471Z,9.30
2022-10-01T14:55:55.193Z,10.87
2022-10-01T14:59:03.372Z,11.33
2022-10-01T15:02:19.190Z,10.80
2022-10-01T15:05:25.206Z,12.10
2022-10-01T15:08:39.389Z,11.80
2022-10-01T15:11:45.227Z,10.97
2022-10-01T15:14:48.816Z,13.03
2022-10-01T15:17:53.080Z,13.33
2022-10-01T15:20:58.968Z,12.30
2022-10-01T15:24:05.797Z,14.40
2022-10-01T15:27:10.410Z,13.40
2022-10-01T15:30:18.303Z,12.20
2022-10-01T15:33:28.661Z,12.20
2022-10-01T15:36:32.868Z,10.43
2022-10-01T15:39:39.774Z,9.47
2022-10-01T15:43:09.618Z,10.50
2022-10-01T15:46:19.191Z,10.33
2022-10-01T15:49:26.115Z,10.23
2022-10-01T15:52:48.029Z,9.63
2022-10-01T15:55:57.116Z,10.70
2022-10-01T15:59:13.894Z,11.13
2022-10-01T16:02:21.029Z,11.47
2022-10-01T16:05:28.308Z,11.20
2022-10-01T16:08:35.315Z,11.07
2022-10-01T16:11:55.182Z,11.07
2022-10-01T16:15:00.094Z,10.97
2022-10-01T16:18:03.494Z,10.87
2022-10-01T16:21:09.212Z,9.70
2022-10-01T16:24:28.595Z,10.43
2022-10-01T16:27:36.429Z,9.60
2022-10-01T16:30:39.837Z,11.27
2022-10-01T16:33:42.886Z,12.17
2022-10-01T16:36:46.484Z,10.67
2022-10-01T16:39:49.489Z,11.13
2022-10-01T16:42:54.770Z,12.00
2022-10-01T16:45:59.301Z,10.60
2022-10-01T16:49:02.450Z,10.87
2022-10-01T16:52:06.258Z,10.67
2022-10-01T16:55:18.446Z,10.50
2022-10-01T16:58:22.932Z,9.70
2022-10-01T17:01:26.157Z,12.43
2022-10-01T17:04:34.047Z,18.83
2022-10-01T17:07:37.358Z,20.87
2022-10-01T17:10:44.206Z,19.17
2022-10-01T17:13:48.897Z,18.63
2022-10-01T17:16:55.993Z,16.70
2022-10-01T17:19:59.122Z,16.97
2022-10-01T17:23:02.206Z,18.40
2022-10-01T17:26:07.048Z,18.33
2022-10-01T17:29:11.570Z,17.37
2022-10-01T17:32:14.987Z,16.63
2022-10-01T17:35:18.433Z,17.80
2022-10-01T17:38:22.149Z,11.03
2022-10-01T17:41:25.365Z,11.83
2022-10-01T17:44:29.874Z,10.47
2022-10-01T17:47:33.661Z,12.33
2022-10-01T17:50:43.828Z,12.10
2022-10-01T17:53:46.896Z,11.10
2022-10-01T17:56:52.485Z,10.70
2022-10-01T17:59:56.933Z,11.73
2022-10-01T18:03:00.742Z,10.27
2022-10-01T18:06:04.469Z,10.43
2022-10-01T18:09:07.922Z,9.80
2022-10-01T18:12:11.489Z,9.87
2022-10-01T18:15:18.664Z,9.53
2022-10-01T18:21:44.723Z,11.03
2022-10-01T18:24:47.833Z,11.03
2022-10-01T18:27:51.182Z,10.73
2022-10-01T18:31:17.105Z,10.50
2022-10-01T18:34:27.050Z,10.53
2022-10-01T18:37:37.736Z,11.00
2022-10-01T18:40:44.799Z,10.10
2022-10-01T18:43:48.339Z,9.30
2022-10-01T18:47:03.215Z,8.97
2022-10-01T18:50:24.684Z,8.77
2022-10-01T18:53:52.535Z,9.13
2022-10-01T18:57:03.290Z,8.80
2022-10-01T19:00:12.721Z,8.47
2022-10-01T19:03:38.981Z,8.13
2022-10-01T19:06:55.731Z,9.37
2022-10-01T19:10:09.507Z,8.33
2022-10-01T19:13:23.605Z,9.03
2022-10-01T19:16:42.087Z,7.97
2022-10-01T19:19:59.046Z,8.60
2022-10-01T19:23:14.540Z,11.70
2022-10-01T19:26:25.247Z,9.70
2022-10-01T19:30:01.914Z,11.47
2022-10-01T19:33:09.464Z,10.00
2022-10-01T19:36:21.968Z,9.47
2022-10-01T19:39:29.336Z,9.00
2022-10-01T19:42:38.017Z,10.53
2022-10-01T19:45:48.544Z,10.53
2022-10-01T19:48:57.252Z,10.67
2022-10-01T19:52:04.451Z,10.70
2022-10-01T19:55:14.735Z,10.23
2022-10-01T19:58:20.044Z,9.80
2022-10-01T20:01:27.614Z,9.63
2022-10-01T20:04:38.175Z,11.10
2022-10-01T20:07:48.498Z,11.77
2022-10-01T20:10:55.617Z,10.60
2022-10-01T20:14:10.149Z,9.30
2022-10-01T20:17:20.134Z,9.80
2022-10-01T20:20:27.978Z,9.63
2022-10-01T20:23:41.584Z,10.93
2022-10-01T20:26:50.588Z,10.53
2022-10-01T20:30:01.771Z,10.23
2022-10-01T20:33:16.589Z,9.40
2022-10-01T20:36:26.061Z,9.87
2022-10-01T20:39:35.164Z,9.83
2022-10-01T20:42:41.667Z,9.60
2022-10-01T20:45:47.357Z,9.00
2022-10-01T20:48:55.309Z,8.97
2022-10-01T20:52:05.408Z,8.57
2022-10-01T20:55:15.680Z,9.27
2022-10-01T20:58:25.052Z,8.13
2022-10-01T21:01:32.440Z,8.43
2022-10-01T21:04:41.923Z,7.20
2022-10-01T21:07:53.258Z,7.37
2022-10-01T21:11:01.314Z,6.30
2022-10-01T21:14:13.386Z,6.30
2022-10-01T21:17:30.879Z,5.93
2022-10-01T21:20:48.983Z,5.90
2022-10-01T21:24:06.031Z,5.90
2022-10-01T21:27:30.995Z,5.80
2022-10-01T21:30:49.472Z,5.50
2022-10-01T21:33:56.702Z,4.53
2022-10-01T21:37:05.599Z,5.13
2022-10-01T21:40:22.179Z,4.80
2022-10-01T21:43:46.018Z,5.00
2022-10-01T21:46:55.623Z,3.97
2022-10-01T21:50:06.217Z,4.23
2022-10-01T21:53:35.933Z,4.37
2022-10-01T21:57:02.403Z,3.57
2022-10-01T22:00:18.412Z,4.97
2022-10-01T22:03:29.925Z,4.90
2022-10-01T22:06:39.017Z,5.60
2022-10-01T22:09:45.735Z,5.60
2022-10-01T22:12:55.052Z,6.37
2022-10-01T22:16:04.168Z,5.70
2022-10-01T22:19:12.769Z,5.30
2022-10-01T22:22:23.409Z,5.90
2022-10-01T22:25:27.551Z,5.43
2022-10-01T22:28:36.327Z,6.53
2022-10-01T22:31:42.387Z,6.60
2022-10-01T22:34:50.787Z,6.30
2022-10-01T22:37:58.092Z,6.90
2022-10-01T22:41:06.236Z,8.60
2022-10-01T22:44:14.764Z,8.03
2022-10-01T22:47:46.939Z,9.70
2022-10-01T22:51:09.010Z,10.23
2022-10-01T22:54:31.321Z,10.50
2022-10-01T22:57:56.639Z,9.93
2022-10-01T23:01:09.445Z,8.67
2022-10-01T23:04:30.795Z,9.60
2022-10-01T23:07:47.308Z,8.90
2022-10-01T23:11:00.947Z,9.27
2022-10-01T23:14:13.745Z,8.97
2022-10-01T23:17:21.942Z,9.00
2022-10-01T23:20:31.543Z,9.63
2022-10-01T23:23:34.841Z,8.90
2022-10-01T23:26:46.136Z,7.87
2022-10-01T23:30:09.313Z,7.93
2022-10-01T23:33:32.187Z,7.83
2022-10-01T23:36:46.240Z,7.90
2022-10-01T23:39:54.313Z,8.40
2022-10-01T23:43:03.504Z,7.90
2022-10-01T23:46:11.251Z,7.90
2022-10-01T23:49:17.355Z,7.47
2022-10-01T23:52:30.917Z,7.73
2022-10-01T23:56:04.999Z,7.50
2022-10-01T23:59:16.442Z,7.33
